Time;durP1;ratioP1;P1;durP2;ratioP2;P2;SDS_P1;SDS_P2;PMS_P1;PMS_P2;Temp;Humidity;BMP_temperature;BMP_pressure;BME280_temperature;BME280_humidity;BME280_pressure;Samples;Min_cycle;Max_cycle;Signal;HPM_P1;HPM_P2
2024/01/17 00:00:09;;;;;;;11.80;6.20;;;;;;;-0.05;39.22;99633.94;108317;1251;60080;-67
2024/01/17 00:02:39;;;;;;;16.20;7.20;;;;;;;-0.11;39.15;99636.02;108274;1251;73011;-67
2024/01/17 00:05:10;;;;;;;17.20;6.80;;;;;;;-0.04;39.40;99644.64;108245;1251;68988;-67
2024/01/17 00:07:37;;;;;;;;;;;;;;;-0.02;39.08;99647.40;108275;1253;72519;-66
2024/01/17 00:10:06;;;;;;;10.30;5.90;;;;;;;-0.14;39.15;99650.17;108228;1251;61894;-67
2024/01/17 00:12:34;;;;;;;15.70;6.80;;;;;;;-0.11;39.49;99656.73;108365;1251;60114;-66
2024/01/17 00:15:02;;;;;;;13.10;6.20;;;;;;;-0.09;39.11;99661.04;108212;1251;72965;-67
2024/01/17 00:17:30;;;;;;;13.20;6.50;;;;;;;-0.10;39.11;99663.45;108166;1251;70722;-67
2024/01/17 00:19:57;;;;;;;11.70;6.00;;;;;;;0.03;39.14;99672.06;108159;1251;72661;-68
2024/01/17 00:22:25;;;;;;;14.60;6.30;;;;;;;0.01;39.05;99674.84;108044;1251;60920;-67
2024/01/17 00:24:53;;;;;;;12.20;6.60;;;;;;;0.02;38.98;99673.62;108249;1251;60517;-67
2024/01/17 00:27:24;;;;;;;16.20;6.30;;;;;;;-0.10;38.95;99672.94;108308;1251;71466;-68
2024/01/17 00:29:57;;;;;;;16.30;6.70;;;;;;;-0.35;39.28;99676.94;108286;1256;68673;-65
2024/01/17 00:32:25;;;;;;;15.30;6.80;;;;;;;-0.18;39.09;99680.20;108191;1253;71969;-64
2024/01/17 00:34:53;;;;;;;14.40;6.70;;;;;;;-0.27;39.18;99687.98;108278;1253;60710;-65
2024/01/17 00:37:21;;;;;;;15.70;6.90;;;;;;;-0.32;39.47;99692.80;108284;1251;59544;-66
2024/01/17 00:39:50;;;;;;;18.90;6.60;;;;;;;-0.22;39.34;99691.92;108247;1253;73223;-66
2024/01/17 00:42:18;;;;;;;18.60;7.00;;;;;;;-0.17;38.92;99691.60;108295;1254;69347;-67
2024/01/17 00:44:45;;;;;;;23.20;8.50;;;;;;;-0.14;39.34;99698.83;108280;1253;72626;-65
2024/01/17 00:47:13;;;;;;;18.10;7.70;;;;;;;-0.12;39.03;99695.04;108250;1253;61665;-66
2024/01/17 00:49:40;;;;;;;18.20;8.50;;;;;;;-0.17;38.98;99698.66;108253;1254;60034;-66
2024/01/17 00:52:08;;;;;;;22.50;8.40;;;;;;;-0.30;39.18;99705.04;108171;1252;71800;-65
2024/01/17 00:54:36;;;;;;;19.90;7.60;;;;;;;-0.27;39.13;99708.33;108259;1253;70185;-67
2024/01/17 00:57:03;;;;;;;19.00;8.40;;;;;;;-0.29;39.26;99707.80;108263;1253;72291;-66
2024/01/17 00:59:31;;;;;;;16.80;8.30;;;;;;;-0.30;39.18;99708.15;108368;1251;60447;-65
2024/01/17 01:02:01;;;;;;;15.20;6.70;;;;;;;-0.40;39.42;99709.86;108275;1252;60008;-66
2024/01/17 01:04:29;;;;;;;13.80;6.60;;;;;;;-0.35;39.55;99714.54;108230;1254;71925;-66
2024/01/17 01:06:56;;;;;;;15.00;7.70;;;;;;;-0.36;39.32;99710.21;108169;1253;69035;-66
2024/01/17 01:09:24;;;;;;;17.00;6.50;;;;;;;-0.24;39.19;99714.20;108275;1256;72499;-64
2024/01/17 01:11:52;;;;;;;16.50;7.10;;;;;;;-0.14;39.03;99716.61;108219;1253;62046;-68
2024/01/17 01:14:19;;;;;;;16.30;7.10;;;;;;;-0.16;39.08;99717.82;108318;1252;59416;-66
2024/01/17 01:16:47;;;;;;;16.40;7.40;;;;;;;-0.39;39.39;99719.71;108314;1254;75284;-65
2024/01/17 01:19:15;;;;;;;14.80;6.50;;;;;;;-0.23;39.15;99724.02;108302;1253;70264;-66
2024/01/17 01:21:43;;;;;;;17.80;7.10;;;;;;;-0.24;39.27;99723.68;108223;1253;71374;-66
2024/01/17 01:24:10;;;;;;;17.70;7.00;;;;;;;-0.34;39.43;99729.20;108219;1253;61192;-67
2024/01/17 01:26:38;;;;;;;14.70;7.30;;;;;;;-0.31;39.26;99727.29;108205;1252;59567;-66
2024/01/17 01:29:08;;;;;;;17.20;7.20;;;;;;;-0.27;39.44;99731.27;108360;1253;72712;-65
2024/01/17 01:31:36;;;;;;;16.00;6.80;;;;;;;-0.38;39.60;99730.39;108318;1254;70426;-67
2024/01/17 01:34:04;;;;;;;13.20;6.90;;;;;;;-0.43;39.64;99726.25;108248;1253;72790;-66
2024/01/17 01:36:31;;;;;;;18.60;8.00;;;;;;;-0.49;39.44;99729.18;108317;1254;59714;-68
2024/01/17 01:38:59;;;;;;;14.10;6.70;;;;;;;-0.59;39.44;99728.30;108258;1253;60000;-67
2024/01/17 01:41:27;;;;;;;12.20;6.30;;;;;;;-0.81;39.99;99733.25;108094;1254;70735;-66
2024/01/17 01:43:55;;;;;;;13.80;6.40;;;;;;;-1.03;40.37;99733.71;108124;1254;69082;-66
2024/01/17 01:46:27;;;;;;;13.60;6.90;;;;;;;-1.10;40.43;99739.38;108290;1256;72498;-66
2024/01/17 01:48:54;;;;;;;15.90;7.20;;;;;;;-0.97;40.63;99743.19;108260;1251;60360;-66
2024/01/17 01:51:22;;;;;;;16.00;6.70;;;;;;;-0.72;40.39;99744.48;108210;1251;59397;-65
2024/01/17 01:53:52;;;;;;;17.50;7.40;;;;;;;-0.70;40.36;99748.27;108327;1250;72222;-67
2024/01/17 01:56:21;;;;;;;19.50;8.10;;;;;;;-0.77;40.64;99757.91;108448;1251;69552;-66
2024/01/17 01:58:49;;;;;;;16.50;7.00;;;;;;;-0.60;40.10;99760.55;108229;1251;72860;-66
2024/01/17 02:01:16;;;;;;;18.10;8.40;;;;;;;-0.69;40.50;99765.70;108197;1254;60750;-65
2024/01/17 02:03:45;;;;;;;16.70;7.70;;;;;;;-0.63;40.38;99769.85;108317;1251;59523;-66
2024/01/17 02:06:13;;;;;;;16.90;7.40;;;;;;;-0.63;39.80;99769.48;108214;1251;71833;-67
2024/01/17 02:08:41;;;;;;;17.70;8.20;;;;;;;-0.61;40.32;99772.95;108419;1251;69317;-65
2024/01/17 02:11:09;;;;;;;16.00;7.40;;;;;;;-0.69;40.31;99777.92;108108;1251;70773;-66
2024/01/17 02:13:37;;;;;;;22.20;8.70;;;;;;;-0.98;40.93;99779.73;108415;1251;60439;-66
2024/01/17 02:16:04;;;;;;;18.10;7.80;;;;;;;-1.04;41.15;99781.77;108448;1251;59596;-67
2024/01/17 02:18:32;;;;;;;18.00;6.90;;;;;;;-0.90;40.71;99785.45;108199;1251;71649;-65
2024/01/17 02:21:00;;;;;;;18.30;8.00;;;;;;;-0.69;40.69;99788.98;108252;1251;70730;-66
2024/01/17 02:23:28;;;;;;;18.60;8.20;;;;;;;-0.70;40.81;99785.69;108114;1251;72663;-65
2024/01/17 02:25:57;;;;;;;18.10;8.30;;;;;;;-0.68;40.63;99794.14;108287;1251;60426;-67
2024/01/17 02:28:27;;;;;;;15.40;8.50;;;;;;;-0.93;40.82;99795.60;108191;1251;59186;-66
2024/01/17 02:30:55;;;;;;;21.20;7.30;;;;;;;-0.96;40.95;99796.45;108195;1251;73015;-66
2024/01/17 02:33:23;;;;;;;19.60;7.90;;;;;;;-0.91;40.97;99799.23;108050;1254;68880;-66
2024/01/17 02:35:50;;;;;;;19.40;8.50;;;;;;;-0.91;40.96;99797.34;108153;1253;71788;-65
2024/01/17 02:38:18;;;;;;;16.10;7.40;;;;;;;-0.99;40.89;99799.19;108023;1254;60401;-66
2024/01/17 02:40:46;;;;;;;21.70;8.20;;;;;;;-0.94;41.16;99797.33;108134;1257;60017;-66
2024/01/17 02:43:13;;;;;;;16.20;8.00;;;;;;;-0.94;40.95;99801.27;108165;1253;73044;-67
2024/01/17 02:45:40;;;;;;;21.20;8.90;;;;;;;-0.95;40.91;99801.98;108166;1254;69002;-65
2024/01/17 02:48:08;;;;;;;20.10;7.90;;;;;;;-0.94;41.18;99800.94;108135;1254;71279;-64
2024/01/17 02:50:36;;;;;;;22.10;9.40;;;;;;;-0.99;40.87;99808.85;108161;1256;61769;-65
2024/01/17 02:53:04;;;;;;;21.10;9.60;;;;;;;-0.93;40.64;99812.15;108169;1252;59505;-67
2024/01/17 02:55:32;;;;;;;19.20;9.00;;;;;;;-1.04;41.24;99818.65;108136;1254;71065;-66
2024/01/17 02:58:02;;;;;;;22.40;9.60;;;;;;;-1.00;41.25;99825.38;108158;1254;70472;-66
2024/01/17 03:00:29;;;;;;;19.50;8.80;;;;;;;-0.94;41.07;99830.06;108051;1252;72465;-66
2024/01/17 03:02:57;;;;;;;14.80;7.90;;;;;;;-1.11;40.97;99831.02;108074;1254;61682;-67
2024/01/17 03:05:24;;;;;;;19.10;8.70;;;;;;;-1.22;41.04;99833.89;108163;1253;59865;-66
2024/01/17 03:07:52;;;;;;;21.50;8.60;;;;;;;-1.25;41.39;99838.17;108104;1253;71746;-67
2024/01/17 03:10:19;;;;;;;17.20;8.40;;;;;;;-1.20;41.02;99840.96;108029;1253;71651;-67
2024/01/17 03:12:47;;;;;;;16.90;6.20;;;;;;;-1.15;41.32;99835.48;108168;1253;71945;-66
2024/01/17 03:15:14;;;;;;;22.60;8.10;;;;;;;-1.23;41.06;99838.88;108165;1253;60622;-67
2024/01/17 03:17:42;;;;;;;21.60;8.40;;;;;;;-1.25;41.00;99839.89;108140;1252;59673;-67
2024/01/17 03:20:10;;;;;;;19.70;8.20;;;;;;;-1.21;41.10;99842.67;108088;1254;71974;-67
2024/01/17 03:22:40;;;;;;;15.80;7.20;;;;;;;-1.33;41.43;99844.33;108195;1256;69409;-67
2024/01/17 03:25:08;;;;;;;22.50;9.10;;;;;;;-1.27;41.25;99848.67;108116;1253;71552;-66
2024/01/17 03:27:35;;;;;;;18.30;8.70;;;;;;;-1.11;41.08;99853.23;108144;1254;60771;-66
2024/01/17 03:30:04;;;;;;;17.50;8.10;;;;;;;-1.04;41.03;99858.45;108219;1253;59988;-66
2024/01/17 03:32:32;;;;;;;16.60;7.90;;;;;;;-1.03;41.14;99862.41;108255;1253;72962;-65
2024/01/17 03:35:00;;;;;;;14.00;7.40;;;;;;;-1.32;41.10;99866.55;108224;1254;69172;-68
2024/01/17 03:37:28;;;;;;;18.30;8.10;;;;;;;-1.74;41.98;99861.56;108210;1253;71093;-66
2024/01/17 03:39:55;;;;;;;18.60;8.00;;;;;;;-1.78;42.33;99861.89;108244;1253;61643;-66
2024/01/17 03:42:23;;;;;;;13.90;7.50;;;;;;;-1.69;41.97;99863.16;108277;1254;60360;-67
2024/01/17 03:44:50;;;;;;;15.00;6.50;;;;;;;-1.69;42.36;99860.75;108253;1252;72668;-65
2024/01/17 03:47:18;;;;;;;19.60;7.60;;;;;;;-1.67;42.06;99864.73;108259;1254;69214;-67
2024/01/17 03:49:45;;;;;;;18.90;7.70;;;;;;;-1.69;42.15;99864.20;108143;1254;71778;-67
2024/01/17 03:52:13;;;;;;;23.50;8.60;;;;;;;-1.81;42.29;99867.02;108174;1253;60674;-67
2024/01/17 03:54:41;;;;;;;17.30;7.60;;;;;;;-1.80;42.06;99864.45;108157;1256;60577;-66
2024/01/17 03:57:08;;;;;;;19.40;8.30;;;;;;;-1.65;42.05;99867.67;108098;1254;73942;-66
2024/01/17 03:59:36;;;;;;;19.70;7.70;;;;;;;-1.46;41.86;99862.98;108166;1252;69840;-66
2024/01/17 04:02:04;;;;;;;20.00;7.70;;;;;;;-1.64;41.86;99863.73;108244;1256;72604;-67
2024/01/17 04:04:31;;;;;;;15.20;6.80;;;;;;;-1.69;41.93;99867.48;108135;1253;61815;-66
2024/01/17 04:06:59;;;;;;;15.60;7.10;;;;;;;-1.65;41.82;99868.70;108190;1254;60225;-66
2024/01/17 04:09:26;;;;;;;17.20;6.80;;;;;;;-1.57;41.69;99872.05;108175;1253;73820;-66
2024/01/17 04:11:54;;;;;;;16.50;6.60;;;;;;;-1.45;41.89;99873.85;108176;1253;69618;-65
2024/01/17 04:14:21;;;;;;;14.50;6.70;;;;;;;-1.32;41.53;99878.42;108166;1254;72666;-66
2024/01/17 04:16:49;;;;;;;20.40;7.50;;;;;;;-1.27;41.52;99881.21;108229;1253;60708;-66
2024/01/17 04:19:16;;;;;;;16.30;7.60;;;;;;;-1.23;40.90;99887.96;108148;1254;60421;-66
2024/01/17 04:21:44;;;;;;;16.70;7.00;;;;;;;-1.23;40.94;99890.21;108148;1253;73859;-66
2024/01/17 04:24:11;;;;;;;13.50;7.10;;;;;;;-1.14;40.91;99897.50;108173;1254;69509;-66
2024/01/17 04:26:39;;;;;;;16.20;6.30;;;;;;;-1.10;40.62;99898.05;108162;1254;71462;-65
2024/01/17 04:29:06;;;;;;;17.10;7.00;;;;;;;-1.07;41.02;99898.92;108204;1252;60946;-66
2024/01/17 04:31:34;;;;;;;12.50;6.00;;;;;;;-1.05;40.65;99900.66;108125;1253;60310;-66
2024/01/17 04:34:02;;;;;;;13.10;6.90;;;;;;;-0.92;40.40;99901.77;108132;1254;73886;-67
2024/01/17 04:36:31;;;;;;;16.80;7.50;;;;;;;-0.91;40.52;99906.60;108317;1253;70271;-67
2024/01/17 04:39:00;;;;;;;18.60;8.10;;;;;;;-0.95;40.19;99908.30;108253;1254;74002;-66
2024/01/17 04:41:29;;;;;;;18.40;8.20;;;;;;;-0.92;40.11;99909.02;108190;1253;60427;-66
2024/01/17 04:43:56;;;;;;;13.20;7.10;;;;;;;-0.93;40.03;99913.14;108149;1253;60419;-67
2024/01/17 04:46:24;;;;;;;17.60;7.30;;;;;;;-0.90;40.01;99916.44;108185;1253;73879;-67
2024/01/17 04:48:51;;;;;;;17.30;7.90;;;;;;;-0.93;40.07;99920.90;108097;1253;70074;-67
2024/01/17 04:51:21;;;;;;;15.90;7.80;;;;;;;-0.96;40.00;99921.21;108168;1254;71519;-67
2024/01/17 04:53:49;;;;;;;16.90;8.30;;;;;;;-1.06;40.29;99925.31;108272;1252;61711;-66
2024/01/17 04:56:17;;;;;;;19.70;8.40;;;;;;;-1.12;40.68;99929.20;108253;1253;60299;-67
2024/01/17 04:58:44;;;;;;;18.70;8.80;;;;;;;-1.24;40.71;99939.81;108176;1253;73832;-66
2024/01/17 05:01:12;;;;;;;23.30;9.00;;;;;;;-1.22;40.87;99943.63;108221;1254;70127;-67
2024/01/17 05:03:43;;;;;;;21.20;7.40;;;;;;;-1.27;41.15;99951.15;108211;1252;71269;-67
2024/01/17 05:06:10;;;;;;;14.40;7.40;;;;;;;-1.34;41.09;99958.67;108192;1253;60636;-67
2024/01/17 05:08:38;;;;;;;23.80;8.90;;;;;;;-1.28;41.30;99961.65;108265;1256;60260;-65
2024/01/17 05:11:06;;;;;;;21.40;8.80;;;;;;;-1.24;41.09;99971.16;108229;1253;73880;-66
2024/01/17 05:13:33;;;;;;;22.20;10.10;;;;;;;-1.28;41.04;99978.02;108168;1254;67755;-66
2024/01/17 05:16:01;;;;;;;26.50;11.20;;;;;;;-1.32;40.84;99980.91;108211;1254;70985;-67
2024/01/17 05:18:29;;;;;;;26.30;10.20;;;;;;;-1.31;40.92;99979.02;108192;1253;60486;-67
2024/01/17 05:20:57;;;;;;;22.90;9.60;;;;;;;-1.31;40.85;99979.36;108153;1253;60067;-67
2024/01/17 05:23:24;;;;;;;17.20;8.60;;;;;;;-1.40;40.90;99980.32;108170;1253;73813;-68
2024/01/17 05:25:52;;;;;;;16.10;8.40;;;;;;;-1.47;41.06;99986.09;108260;1253;68575;-67
2024/01/17 05:28:20;;;;;;;21.40;9.90;;;;;;;-1.68;41.11;99990.21;108272;1252;72677;-67
2024/01/17 05:30:47;;;;;;;26.00;10.10;;;;;;;-1.73;41.29;100002.55;108181;1254;60688;-67
2024/01/17 05:33:16;;;;;;;21.60;9.40;;;;;;;-1.75;41.25;100009.93;108165;1254;60649;-66
2024/01/17 05:35:44;;;;;;;19.10;8.60;;;;;;;-1.73;40.98;100010.30;108187;1253;74851;-67
2024/01/17 05:38:11;;;;;;;17.50;8.70;;;;;;;-1.61;40.89;100010.59;108330;1254;69461;-67
2024/01/17 05:40:39;;;;;;;18.00;8.00;;;;;;;-1.61;40.77;100009.38;108167;1253;71396;-67
2024/01/17 05:43:07;;;;;;;19.00;8.50;;;;;;;-1.63;40.77;100016.95;108141;1253;60744;-67
2024/01/17 05:45:34;;;;;;;17.60;8.30;;;;;;;-1.68;40.92;100026.86;108193;1253;60181;-66
2024/01/17 05:48:02;;;;;;;19.90;9.80;;;;;;;-1.73;40.89;100038.34;108075;1258;74033;-67
2024/01/17 05:50:30;;;;;;;19.40;9.40;;;;;;;-1.78;41.06;100039.48;108310;1254;68993;-66
2024/01/17 05:52:58;;;;;;;21.50;8.60;;;;;;;-1.80;41.16;100043.27;108104;1254;71857;-67
2024/01/17 05:55:26;;;;;;;18.00;8.60;;;;;;;-1.85;41.03;100044.23;108235;1254;61719;-67
2024/01/17 05:57:54;;;;;;;19.70;8.60;;;;;;;-1.88;41.54;100047.48;108153;1253;59051;-67
2024/01/17 06:00:22;;;;;;;20.10;8.60;;;;;;;-1.86;41.57;100051.10;108226;1252;73885;-66
2024/01/17 06:02:49;;;;;;;15.20;8.10;;;;;;;-1.86;41.48;100058.50;108242;1253;68981;-66
2024/01/17 06:05:17;;;;;;;17.70;8.90;;;;;;;-1.86;41.58;100062.80;108258;1254;71153;-66
2024/01/17 06:07:45;;;;;;;18.90;8.80;;;;;;;-1.83;41.74;100069.21;108173;1253;61749;-67
2024/01/17 06:10:13;;;;;;;21.80;9.50;;;;;;;-1.89;41.85;100075.67;108196;1252;61037;-67
2024/01/17 06:12:42;;;;;;;26.70;9.90;;;;;;;-1.89;42.25;100077.74;108257;1254;72624;-67
2024/01/17 06:15:11;;;;;;;25.60;11.50;;;;;;;-1.90;41.92;100073.27;108231;1256;68872;-67
2024/01/17 06:17:40;;;;;;;27.30;10.20;;;;;;;-1.82;41.88;100078.17;108191;1252;71481;-66
2024/01/17 06:20:09;;;;;;;21.50;10.20;;;;;;;-1.79;41.84;100087.16;108329;1254;60469;-66
2024/01/17 06:22:38;;;;;;;24.70;9.20;;;;;;;-1.90;41.74;100088.39;108170;1253;60463;-66
2024/01/17 06:25:06;;;;;;;19.90;9.30;;;;;;;-1.89;42.36;100095.65;108222;1253;72644;-67
2024/01/17 06:27:34;;;;;;;19.20;9.40;;;;;;;-1.83;42.20;100102.08;108355;1252;70321;-67
2024/01/17 06:30:02;;;;;;;23.20;10.50;;;;;;;-1.69;42.11;100106.39;108361;1251;71414;-67
2024/01/17 06:32:30;;;;;;;27.60;11.10;;;;;;;-1.62;41.73;100108.54;108346;1253;61630;-67
2024/01/17 06:34:58;;;;;;;20.20;9.30;;;;;;;-1.63;41.60;100116.44;108235;1257;60154;-67
2024/01/17 06:37:26;;;;;;;24.60;9.60;;;;;;;-1.66;41.82;100120.03;108273;1253;72749;-67
2024/01/17 06:39:54;;;;;;;18.40;9.20;;;;;;;-1.69;41.85;100121.88;108321;1254;69951;-67
2024/01/17 06:42:21;;;;;;;22.10;10.00;;;;;;;-1.97;42.14;100126.00;108288;1253;72716;-67
2024/01/17 06:44:49;;;;;;;25.40;11.10;;;;;;;-1.87;42.17;100129.91;108312;1253;61632;-67
2024/01/17 06:47:16;;;;;;;27.10;9.90;;;;;;;-1.61;41.51;100131.29;108267;1253;60326;-67
2024/01/17 06:49:44;;;;;;;23.20;10.50;;;;;;;-1.49;41.46;100136.59;108281;1254;73842;-66
2024/01/17 06:52:12;;;;;;;23.40;10.20;;;;;;;-1.30;41.32;100135.95;108368;1254;70145;-64
2024/01/17 06:54:39;;;;;;;22.30;11.10;;;;;;;-1.03;41.17;100134.85;108309;1252;72649;-65
2024/01/17 06:57:09;;;;;;;24.20;11.00;;;;;;;-0.82;41.33;100135.91;108310;1253;61675;-63
2024/01/17 06:59:37;;;;;;;22.50;10.80;;;;;;;-0.68;40.76;100137.77;108399;1253;60345;-66
2024/01/17 07:02:05;;;;;;;27.20;11.00;;;;;;;-0.87;41.06;100138.11;108325;1254;72551;-64
2024/01/17 07:04:33;;;;;;;23.30;10.20;;;;;;;-0.63;40.43;100136.42;108374;1253;70037;-66
2024/01/17 07:07:00;;;;;;;22.30;10.20;;;;;;;-0.67;40.26;100137.27;108240;1254;71424;-64
2024/01/17 07:09:28;;;;;;;24.00;10.20;;;;;;;-1.17;40.67;100148.48;108273;1252;61608;-66
2024/01/17 07:11:56;;;;;;;22.80;9.30;;;;;;;-1.28;40.97;100149.58;108305;1256;60324;-67
2024/01/17 07:14:25;;;;;;;20.20;8.10;;;;;;;-1.12;40.93;100151.14;108152;1252;74803;-67
2024/01/17 07:16:53;;;;;;;25.10;10.80;;;;;;;-0.88;40.68;100153.61;108260;1254;69204;-69
2024/01/17 07:19:21;;;;;;;24.00;10.30;;;;;;;-0.62;40.47;100150.74;108215;1253;71885;-67
2024/01/17 07:21:49;;;;;;;19.20;8.70;;;;;;;-0.19;41.04;100153.66;108209;1254;61652;-67
2024/01/17 07:24:16;;;;;;;21.30;9.90;;;;;;;0.76;41.65;100155.00;108353;1252;60302;-66
2024/01/17 07:26:44;;;;;;;19.50;9.70;;;;;;;2.15;40.38;100146.57;108295;1253;72601;-66
2024/01/17 07:29:12;;;;;;;23.20;9.90;;;;;;;3.58;38.02;100139.75;108298;1254;68697;-68
2024/01/17 07:31:39;;;;;;;24.50;11.10;;;;;;;4.67;36.11;100138.25;108281;1254;72622;-68
2024/01/17 07:34:07;;;;;;;22.20;9.30;;;;;;;5.66;34.54;100130.20;108150;1254;60430;-66
2024/01/17 07:36:34;;;;;;;19.70;9.40;;;;;;;6.42;32.68;100126.20;108095;1252;60306;-67
2024/01/17 07:39:02;;;;;;;16.40;9.00;;;;;;;6.72;32.31;100125.08;108276;1254;73799;-67
2024/01/17 07:41:30;;;;;;;20.30;10.00;;;;;;;7.41;31.90;100127.69;108177;1254;68862;-68
2024/01/17 07:43:57;;;;;;;24.40;10.40;;;;;;;8.36;30.55;100131.90;108179;1254;71729;-68
2024/01/17 07:46:25;;;;;;;19.00;9.80;;;;;;;9.00;29.38;100133.20;108264;1254;60520;-66
2024/01/17 07:48:53;;;;;;;23.20;9.80;;;;;;;9.53;28.01;100137.70;108228;1254;60414;-67
2024/01/17 07:51:20;;;;;;;18.90;9.30;;;;;;;9.92;27.67;100133.05;108259;1253;73950;-66
2024/01/17 07:53:48;;;;;;;21.60;9.80;;;;;;;10.37;26.11;100132.38;108237;1254;69923;-67
2024/01/17 07:56:16;;;;;;;16.70;8.60;;;;;;;10.65;25.67;100136.60;108181;1254;73252;-67
2024/01/17 07:58:44;;;;;;;18.10;8.90;;;;;;;10.95;25.21;100139.16;108211;1254;60341;-68
2024/01/17 08:01:12;;;;;;;19.80;9.10;;;;;;;11.16;24.95;100141.54;108221;1254;60364;-66
2024/01/17 08:03:40;;;;;;;20.40;9.10;;;;;;;11.61;24.67;100149.94;108238;1255;74935;-68
2024/01/17 08:06:08;;;;;;;18.00;9.00;;;;;;;12.41;23.98;100152.02;108212;1254;69198;-68
2024/01/17 08:08:37;;;;;;;16.60;8.80;;;;;;;13.01;23.55;100152.98;108240;1253;71779;-69
2024/01/17 08:11:04;;;;;;;15.50;8.80;;;;;;;13.34;23.08;100160.79;108213;1254;60322;-67
2024/01/17 08:13:34;;;;;;;16.70;8.40;;;;;;;13.64;22.55;100166.41;108199;1254;60422;-69
2024/01/17 08:16:01;;;;;;;20.60;9.80;;;;;;;13.76;22.53;100165.63;108145;1252;72850;-70
2024/01/17 08:18:29;;;;;;;18.60;9.10;;;;;;;13.94;22.36;100164.89;108222;1254;70851;-69
2024/01/17 08:20:57;;;;;;;15.30;8.00;;;;;;;14.39;22.00;100164.41;108174;1253;70634;-67
2024/01/17 08:23:25;;;;;;;17.30;8.40;;;;;;;14.66;21.85;100165.10;108262;1253;60341;-68
2024/01/17 08:25:52;;;;;;;15.70;8.40;;;;;;;14.90;21.57;100164.02;108244;1254;60443;-66
2024/01/17 08:28:19;;;;;;;16.20;8.30;;;;;;;15.09;21.18;100157.14;108223;1251;73893;-68
2024/01/17 08:30:47;;;;;;;16.00;8.50;;;;;;;15.12;20.71;100152.73;108274;1251;70261;-67
2024/01/17 08:33:15;;;;;;;17.10;8.50;;;;;;;15.04;20.50;100156.52;108298;1251;73909;-69
2024/01/17 08:35:42;;;;;;;17.00;8.40;;;;;;;15.04;20.64;100155.48;108277;1256;60478;-68
2024/01/17 08:38:11;;;;;;;15.30;8.40;;;;;;;15.26;20.52;100155.30;108321;1251;60245;-69
2024/01/17 08:40:38;;;;;;;18.80;8.40;;;;;;;15.37;19.79;100157.31;108318;1251;74047;-68
2024/01/17 08:43:06;;;;;;;15.20;8.30;;;;;;;15.39;19.84;100161.45;108332;1251;72708;-70
2024/01/17 08:45:33;;;;;;;15.70;8.00;;;;;;;15.73;19.66;100164.67;108310;1256;72950;-67
2024/01/17 08:48:01;;;;;;;15.40;8.40;;;;;;;15.98;19.58;100167.48;108336;1251;60351;-68
2024/01/17 08:50:29;;;;;;;14.80;8.00;;;;;;;16.27;19.21;100177.45;108354;1251;59146;-70
2024/01/17 08:52:58;;;;;;;17.00;8.70;;;;;;;16.55;18.99;100185.13;108372;1251;72611;-69
2024/01/17 08:55:25;;;;;;;16.30;8.60;;;;;;;16.42;18.40;100192.35;108337;1251;69366;-68
2024/01/17 08:57:52;;;;;;;14.20;8.10;;;;;;;15.87;18.63;100195.55;108333;1251;71904;-69
2024/01/17 09:00:20;;;;;;;13.20;8.40;;;;;;;15.30;19.00;100196.83;108309;1251;62544;-68
2024/01/17 09:02:48;;;;;;;13.00;7.70;;;;;;;15.08;19.42;100202.98;108349;1251;60220;-69
2024/01/17 09:05:18;;;;;;;12.90;7.70;;;;;;;15.48;19.13;100201.81;108328;1251;74018;-68
2024/01/17 09:07:46;;;;;;;14.50;7.90;;;;;;;15.67;19.32;100202.91;108307;1251;68985;-67
2024/01/17 09:10:16;;;;;;;12.20;6.70;;;;;;;16.13;18.69;100198.83;108256;1255;71330;-69
2024/01/17 09:12:44;;;;;;;11.20;7.50;;;;;;;16.17;18.40;100203.21;108351;1251;60523;-70
2024/01/17 09:15:12;;;;;;;15.60;6.80;;;;;;;16.05;18.40;100205.35;108298;1251;60437;-68
2024/01/17 09:17:40;;;;;;;11.70;6.60;;;;;;;15.85;17.96;100203.98;108303;1251;72602;-68
2024/01/17 09:20:09;;;;;;;13.40;7.70;;;;;;;15.79;18.50;100205.77;108329;1251;70926;-68
2024/01/17 09:22:36;;;;;;;14.70;7.20;;;;;;;16.09;18.41;100201.55;108325;1256;72624;-69
2024/01/17 09:25:05;;;;;;;12.80;6.30;;;;;;;16.51;18.09;100204.52;108275;1251;59713;-68
2024/01/17 09:27:32;;;;;;;12.50;6.70;;;;;;;16.90;17.60;100204.16;108348;1251;60940;-69
2024/01/17 09:30:00;;;;;;;11.20;6.50;;;;;;;17.34;17.66;100198.15;108360;1251;76145;-68
2024/01/17 09:32:28;;;;;;;11.60;6.90;;;;;;;17.59;17.18;100192.16;108323;1254;69950;-69
2024/01/17 09:34:55;;;;;;;12.00;6.60;;;;;;;17.57;17.32;100194.04;108237;1254;74841;-69
2024/01/17 09:37:23;;;;;;;15.90;7.50;;;;;;;17.64;17.20;100193.60;108268;1253;60341;-69
2024/01/17 09:39:51;;;;;;;15.80;7.10;;;;;;;17.42;17.05;100194.48;108194;1254;60287;-68
2024/01/17 09:42:19;;;;;;;12.10;6.30;;;;;;;17.01;16.99;100194.92;108185;1256;76058;-68
2024/01/17 09:44:47;;;;;;;13.30;6.80;;;;;;;17.08;17.43;100199.29;108229;1253;70089;-70
2024/01/17 09:47:15;;;;;;;12.30;6.00;;;;;;;17.40;17.39;100195.98;108302;1254;72530;-70
2024/01/17 09:49:43;;;;;;;9.10;4.60;;;;;;;17.36;16.76;100200.00;108186;1254;60196;-68
2024/01/17 09:52:15;;;;;;;10.30;4.60;;;;;;;17.34;17.34;100205.45;108104;1253;60475;-70
2024/01/17 09:54:43;;;;;;;8.50;5.50;;;;;;;17.70;16.72;100197.44;108301;1254;73588;-69
2024/01/17 09:57:17;;;;;;;9.10;5.20;;;;;;;17.89;16.51;100197.50;108178;1254;69496;-68
2024/01/17 09:59:51;;;;;;;9.40;5.70;;;;;;;17.83;16.57;100200.71;108128;1253;72518;-67
2024/01/17 10:02:19;;;;;;;11.60;6.60;;;;;;;17.94;15.95;100198.74;108370;1253;60447;-69
2024/01/17 10:04:47;;;;;;;12.20;6.90;;;;;;;18.09;16.15;100196.83;108218;1254;60335;-69
2024/01/17 10:07:14;;;;;;;16.50;9.50;;;;;;;18.11;16.02;100192.98;108105;1254;74200;-70
2024/01/17 10:09:42;;;;;;;17.40;9.70;;;;;;;17.73;16.25;100193.70;108203;1254;70123;-69
2024/01/17 10:12:09;;;;;;;17.60;8.60;;;;;;;17.69;16.43;100193.83;108293;1253;74850;-69
2024/01/17 10:14:38;;;;;;;14.50;8.00;;;;;;;17.76;16.38;100200.23;108270;1253;61014;-69
2024/01/17 10:17:05;;;;;;;18.60;10.20;;;;;;;17.74;16.06;100196.80;108299;1253;59658;-68
2024/01/17 10:19:33;;;;;;;42.10;27.60;;;;;;;17.63;16.71;100199.70;108306;1254;73939;-68
2024/01/17 10:22:04;;;;;;;20.90;10.70;;;;;;;17.57;16.46;100198.27;108213;1254;72301;-69
2024/01/17 10:24:35;;;;;;;37.80;16.20;;;;;;;17.35;16.60;100199.54;108203;1255;73708;-67
2024/01/17 10:27:03;;;;;;;16.30;8.10;;;;;;;16.96;16.67;100198.08;108224;1254;60425;-68
2024/01/17 10:29:31;;;;;;;18.60;10.50;;;;;;;16.93;16.74;100193.49;108230;1254;60283;-69
2024/01/17 10:32:03;;;;;;;20.40;9.40;;;;;;;17.14;17.34;100195.52;108148;1252;74321;-71
2024/01/17 10:34:31;;;;;;;19.90;10.00;;;;;;;17.16;16.26;100198.78;108231;1254;70045;-69
2024/01/17 10:36:58;;;;;;;20.60;10.30;;;;;;;16.89;16.74;100202.64;108225;1254;74895;-68
2024/01/17 10:39:26;;;;;;;15.40;7.80;;;;;;;17.12;17.08;100195.48;108215;1253;60398;-68
2024/01/17 10:41:54;;;;;;;17.80;7.70;;;;;;;17.01;16.57;100189.97;108225;1254;60819;-69
2024/01/17 10:44:23;;;;;;;12.30;7.00;;;;;;;16.63;16.76;100190.89;108261;1253;76187;-68
2024/01/17 10:46:53;;;;;;;12.10;6.80;;;;;;;16.55;16.94;100186.55;108197;1253;68391;-71
2024/01/17 10:49:22;;;;;;;11.60;7.00;;;;;;;16.47;17.11;100188.11;108157;1254;72979;-69
2024/01/17 10:52:03;;;;;;;13.90;6.60;;;;;;;16.73;17.23;100177.84;108312;1255;62723;-69
2024/01/17 10:54:59;;;;;;;15.20;7.90;;;;;;;17.20;17.09;100176.36;108230;1254;60427;-69
2024/01/17 10:57:27;;;;;;;17.50;8.00;;;;;;;17.38;16.25;100179.60;108274;1254;74058;-69
2024/01/17 10:59:54;;;;;;;18.30;7.70;;;;;;;17.44;16.45;100178.95;108288;1254;70188;-69
2024/01/17 11:02:22;;;;;;;11.80;6.70;;;;;;;17.48;16.13;100176.54;108042;1254;72807;-69
2024/01/17 11:05:05;;;;;;;11.30;6.40;;;;;;;17.49;16.17;100174.86;108207;1254;60443;-68
2024/01/17 11:07:34;;;;;;;10.50;5.70;;;;;;;17.45;16.33;100172.10;108202;1252;60415;-68
2024/01/17 11:10:04;;;;;;;9.90;6.10;;;;;;;17.32;15.92;100167.58;107976;1254;73951;-69
2024/01/17 11:12:32;;;;;;;13.20;6.80;;;;;;;17.30;16.48;100161.19;108214;1255;68845;-69
2024/01/17 11:15:00;;;;;;;12.80;6.60;;;;;;;17.48;16.46;100163.41;108214;1254;73623;-68